createdAt,value
2022-12-24T00:01:34.188Z,4.97
2022-12-24T00:04:01.114Z,5.50
2022-12-24T00:06:27.766Z,4.10
2022-12-24T00:08:54.513Z,5.22
2022-12-24T00:11:21.383Z,5.30
2022-12-24T00:13:48.700Z,6.03
2022-12-24T00:16:15.668Z,7.53
2022-12-24T00:18:46.162Z,3.25
2022-12-24T00:21:14.332Z,3.90
2022-12-24T00:23:41.142Z,2.97
2022-12-24T00:26:08.007Z,7.80
2022-12-24T00:28:34.711Z,4.32
2022-12-24T00:31:09.344Z,1.55
2022-12-24T00:33:36.146Z,4.45
2022-12-24T00:36:02.893Z,3.97
2022-12-24T00:38:29.698Z,4.50
2022-12-24T00:41:01.862Z,8.25
2022-12-24T00:43:29.874Z,3.30
2022-12-24T00:45:57.406Z,5.55
2022-12-24T00:48:24.424Z,6.07
2022-12-24T00:50:51.398Z,6.40
2022-12-24T00:53:18.583Z,5.95
2022-12-24T00:55:45.297Z,8.88
2022-12-24T00:58:12.056Z,3.47
2022-12-24T01:00:38.774Z,8.30
2022-12-24T01:03:05.599Z,3.28
2022-12-24T01:05:32.417Z,3.45
2022-12-24T01:07:59.199Z,3.92
2022-12-24T01:10:25.940Z,3.65
2022-12-24T01:12:52.636Z,5.35
2022-12-24T01:15:19.389Z,2.97
2022-12-24T01:17:46.135Z,9.15
2022-12-24T01:20:15.380Z,4.90
2022-12-24T01:22:42.327Z,3.00
2022-12-24T01:25:09.276Z,5.38
2022-12-24T01:27:36.028Z,5.50
2022-12-24T01:30:02.797Z,4.82
2022-12-24T01:32:29.492Z,7.47
2022-12-24T01:34:56.286Z,9.38
2022-12-24T01:37:22.995Z,7.95
2022-12-24T01:39:49.737Z,13.27
2022-12-24T01:42:40.201Z,10.40
2022-12-24T01:45:38.144Z,13.25
2022-12-24T01:48:05.218Z,11.43
2022-12-24T01:50:32.044Z,13.50
2022-12-24T01:52:58.755Z,9.25
2022-12-24T01:55:25.601Z,7.65
2022-12-24T01:57:54.672Z,10.20
2022-12-24T02:00:21.560Z,10.38
2022-12-24T02:02:49.647Z,9.75
2022-12-24T02:05:30.229Z,12.65
2022-12-24T02:07:57.074Z,7.97
2022-12-24T02:10:23.952Z,12.20
2022-12-24T02:12:50.674Z,9.52
2022-12-24T02:15:18.536Z,10.73
2022-12-24T02:18:03.992Z,7.45
2022-12-24T02:20:55.639Z,11.13
2022-12-24T02:23:44.076Z,10.13
2022-12-24T02:26:29.337Z,10.93
2022-12-24T02:29:09.416Z,7.43
2022-12-24T02:31:54.254Z,11.95
2022-12-24T02:34:43.057Z,10.88
2022-12-24T02:37:22.837Z,12.75
2022-12-24T02:40:02.047Z,10.30
2022-12-24T02:42:41.184Z,13.80
2022-12-24T02:45:11.883Z,10.43
2022-12-24T02:47:38.730Z,6.90
2022-12-24T02:50:06.820Z,9.38
2022-12-24T02:52:41.974Z,7.78
2022-12-24T02:55:16.394Z,10.73
2022-12-24T02:57:47.931Z,5.88
2022-12-24T03:00:17.472Z,5.35
2022-12-24T03:02:50.409Z,8.15
2022-12-24T03:05:19.746Z,8.07
2022-12-24T03:07:52.369Z,7.43
2022-12-24T03:10:23.738Z,12.80
2022-12-24T03:12:53.148Z,11.85
2022-12-24T03:15:22.408Z,9.35
2022-12-24T03:17:50.725Z,9.85
2022-12-24T03:20:37.726Z,10.70
2022-12-24T03:23:04.733Z,16.80
2022-12-24T03:25:31.406Z,12.20
2022-12-24T03:27:58.066Z,11.38
2022-12-24T03:30:24.835Z,10.75
2022-12-24T03:32:51.582Z,9.55
2022-12-24T03:35:18.353Z,10.55
2022-12-24T03:37:45.366Z,7.43
2022-12-24T03:40:12.327Z,9.88
2022-12-24T03:42:39.089Z,8.05
2022-12-24T03:45:06.348Z,6.35
2022-12-24T03:47:33.037Z,9.80
2022-12-24T03:49:59.746Z,7.45
2022-12-24T03:52:26.492Z,8.50
2022-12-24T03:54:53.132Z,9.57
2022-12-24T03:57:19.876Z,8.27
2022-12-24T03:59:46.564Z,5.22
2022-12-24T04:02:13.435Z,8.23
2022-12-24T04:04:40.255Z,4.97
2022-12-24T04:07:06.990Z,8.88
2022-12-24T04:09:33.729Z,9.73
2022-12-24T04:12:00.487Z,4.47
2022-12-24T04:14:27.230Z,9.10
2022-12-24T04:16:53.952Z,7.97
2022-12-24T04:19:20.764Z,8.57
2022-12-24T04:21:47.419Z,8.35
2022-12-24T04:24:14.073Z,7.25
2022-12-24T04:26:40.700Z,8.85
2022-12-24T04:29:07.394Z,9.27
2022-12-24T04:31:34.072Z,10.45
2022-12-24T04:34:00.762Z,12.85
2022-12-24T04:36:27.439Z,11.05
2022-12-24T04:38:54.221Z,6.05
2022-12-24T04:41:24.882Z,10.27
2022-12-24T04:43:53.169Z,10.30
2022-12-24T04:46:22.548Z,8.23
2022-12-24T04:48:50.861Z,8.77
2022-12-24T04:51:18.049Z,12.68
2022-12-24T04:53:44.989Z,8.65
2022-12-24T04:56:25.690Z,10.70
2022-12-24T04:58:52.577Z,6.95
2022-12-24T05:01:24.693Z,6.53
2022-12-24T05:03:51.936Z,8.33
2022-12-24T05:06:22.408Z,6.15
2022-12-24T05:08:49.434Z,7.97
2022-12-24T05:11:16.442Z,10.77
2022-12-24T05:13:47.177Z,7.43
2022-12-24T05:16:15.880Z,12.27
2022-12-24T05:18:42.681Z,11.88
2022-12-24T05:21:15.317Z,10.35
2022-12-24T05:24:00.621Z,6.15
2022-12-24T05:26:33.407Z,15.13
2022-12-24T05:29:00.904Z,10.35
2022-12-24T05:31:28.889Z,11.85
2022-12-24T05:33:55.973Z,5.85
2022-12-24T05:36:23.368Z,10.48
2022-12-24T05:38:50.443Z,9.00
2022-12-24T05:41:17.431Z,10.48
2022-12-24T05:43:44.426Z,11.55
2022-12-24T05:46:12.572Z,5.72
2022-12-24T05:48:39.361Z,9.35
2022-12-24T05:51:09.752Z,9.80
2022-12-24T05:53:36.710Z,8.95
2022-12-24T05:56:07.661Z,12.38
2022-12-24T05:58:34.887Z,14.45
2022-12-24T06:01:02.478Z,15.93
2022-12-24T06:03:30.040Z,15.30
2022-12-24T06:06:00.742Z,11.40
2022-12-24T06:08:28.035Z,10.20
2022-12-24T06:10:57.036Z,7.82
2022-12-24T06:13:24.055Z,13.57
2022-12-24T06:15:51.161Z,16.70
2022-12-24T06:18:17.920Z,7.65
2022-12-24T06:20:44.557Z,7.82
2022-12-24T06:23:11.313Z,9.20
2022-12-24T06:25:38.106Z,7.95
2022-12-24T06:28:05.020Z,10.20
2022-12-24T06:30:31.693Z,13.18
2022-12-24T06:32:59.457Z,15.20
2022-12-24T06:35:26.181Z,10.45
2022-12-24T06:37:52.882Z,14.00
2022-12-24T06:40:19.557Z,9.95
2022-12-24T06:42:46.241Z,6.55
2022-12-24T06:45:12.889Z,12.75
2022-12-24T06:47:39.602Z,12.65
2022-12-24T06:50:06.823Z,13.52
2022-12-24T06:52:33.663Z,13.10
2022-12-24T06:55:00.339Z,17.10
2022-12-24T06:57:27.131Z,10.75
2022-12-24T06:59:53.780Z,12.05
2022-12-24T07:02:20.533Z,8.70
2022-12-24T07:04:47.265Z,8.30
2022-12-24T07:07:14.114Z,7.70
2022-12-24T07:09:40.767Z,11.50
2022-12-24T07:12:07.583Z,10.45
2022-12-24T07:14:34.847Z,12.45
2022-12-24T07:17:01.780Z,12.80
2022-12-24T07:19:31.748Z,8.10
2022-12-24T07:21:58.474Z,8.80
2022-12-24T07:24:25.155Z,12.85
2022-12-24T07:26:51.874Z,11.52
2022-12-24T07:29:18.656Z,9.05
2022-12-24T07:31:45.492Z,8.32
2022-12-24T07:34:12.215Z,8.07
2022-12-24T07:36:38.868Z,8.10
2022-12-24T07:39:05.628Z,8.25
2022-12-24T07:41:36.350Z,11.00
2022-12-24T07:44:12.310Z,10.32
2022-12-24T07:46:39.304Z,9.05
2022-12-24T07:49:06.051Z,8.95
2022-12-24T07:51:32.864Z,15.10
2022-12-24T07:53:59.703Z,6.82
2022-12-24T07:56:26.385Z,9.50
2022-12-24T07:58:53.079Z,8.35
2022-12-24T08:01:19.780Z,10.80
2022-12-24T08:03:46.758Z,6.15
2022-12-24T08:06:13.598Z,6.75
2022-12-24T08:08:40.262Z,8.25
2022-12-24T08:11:07.474Z,7.65
2022-12-24T08:13:34.375Z,11.27
2022-12-24T08:16:01.091Z,6.80
2022-12-24T08:18:27.966Z,11.02
2022-12-24T08:20:54.757Z,5.75
2022-12-24T08:23:21.557Z,9.35
2022-12-24T08:25:48.786Z,9.80
2022-12-24T08:28:16.964Z,8.82
2022-12-24T08:30:43.968Z,12.48
2022-12-24T08:33:11.128Z,12.27
2022-12-24T08:35:37.829Z,9.07
2022-12-24T08:38:04.746Z,10.18
2022-12-24T08:40:31.382Z,13.82
2022-12-24T08:42:58.393Z,11.15
2022-12-24T08:45:25.123Z,10.82
2022-12-24T08:47:51.889Z,15.10
2022-12-24T08:50:18.862Z,10.05
2022-12-24T08:52:45.599Z,9.95
2022-12-24T08:55:12.233Z,10.55
2022-12-24T08:57:39.042Z,12.13
2022-12-24T09:00:07.611Z,8.75
2022-12-24T09:02:34.541Z,11.90
2022-12-24T09:05:01.473Z,11.65
2022-12-24T09:07:28.215Z,7.47
2022-12-24T09:09:54.878Z,6.93
2022-12-24T09:12:21.614Z,10.77
2022-12-24T09:14:48.424Z,12.93
2022-12-24T09:17:15.115Z,7.63
2022-12-24T09:19:41.773Z,7.78
2022-12-24T09:22:08.462Z,9.88
2022-12-24T09:24:36.423Z,10.85
2022-12-24T09:27:04.133Z,9.82
2022-12-24T09:29:31.604Z,10.57
2022-12-24T09:31:58.393Z,6.03
2022-12-24T09:34:30.424Z,11.52
2022-12-24T09:36:57.660Z,10.77
2022-12-24T09:39:24.299Z,8.60
2022-12-24T09:42:11.559Z,12.25
2022-12-24T09:44:59.046Z,13.00
2022-12-24T09:47:39.766Z,13.25
2022-12-24T09:50:22.579Z,13.82
2022-12-24T09:52:49.251Z,9.35
2022-12-24T09:55:25.849Z,9.38
2022-12-24T09:57:53.252Z,11.38
2022-12-24T10:00:25.247Z,12.82
2022-12-24T10:02:52.755Z,7.28
2022-12-24T10:05:26.755Z,8.82
2022-12-24T10:08:24.207Z,11.50
2022-12-24T10:10:53.534Z,9.43
2022-12-24T10:14:14.489Z,10.90
2022-12-24T10:16:50.940Z,11.27
2022-12-24T10:19:28.055Z,9.88
2022-12-24T10:22:22.603Z,9.80
2022-12-24T10:24:59.271Z,13.13
2022-12-24T10:27:29.279Z,8.73
2022-12-24T10:30:10.369Z,10.88
2022-12-24T10:32:40.022Z,7.82
2022-12-24T10:35:15.070Z,9.27
2022-12-24T10:37:49.888Z,17.95
2022-12-24T10:40:41.070Z,9.95
2022-12-24T10:43:22.447Z,7.07
2022-12-24T10:45:57.947Z,11.20
2022-12-24T10:48:31.041Z,12.60
2022-12-24T10:53:54.710Z,8.70
2022-12-24T10:56:21.934Z,10.73
2022-12-24T10:58:55.330Z,10.93
2022-12-24T11:01:42.481Z,11.00
2022-12-24T11:04:18.437Z,8.95
2022-12-24T11:06:56.434Z,13.32
2022-12-24T11:09:29.422Z,11.90
2022-12-24T11:14:35.221Z,9.50
2022-12-24T11:17:02.239Z,7.85
2022-12-24T11:19:34.100Z,10.63
2022-12-24T11:22:06.112Z,8.43
2022-12-24T11:24:35.278Z,7.90
2022-12-24T11:27:23.867Z,13.57
2022-12-24T11:29:50.918Z,10.23
2022-12-24T11:32:23.023Z,7.97
2022-12-24T11:34:50.194Z,4.87
2022-12-24T11:37:24.481Z,10.20
2022-12-24T11:40:00.486Z,10.85
2022-12-24T11:42:38.493Z,12.57
2022-12-24T11:45:27.192Z,10.88
2022-12-24T11:47:54.414Z,10.73
2022-12-24T11:50:25.915Z,13.52
2022-12-24T11:53:31.123Z,14.98
2022-12-24T11:55:59.178Z,14.55
2022-12-24T11:58:44.114Z,9.98
2022-12-24T12:01:37.057Z,16.83
2022-12-24T12:04:07.137Z,10.90
2022-12-24T12:06:36.312Z,12.48
2022-12-24T12:09:12.520Z,11.90
2022-12-24T12:11:39.710Z,8.63
2022-12-24T12:14:06.553Z,8.93
2022-12-24T12:17:00.952Z,12.68
2022-12-24T12:19:29.413Z,13.63
2022-12-24T12:21:56.349Z,13.82
2022-12-24T12:24:32.123Z,14.60
2022-12-24T12:27:21.552Z,13.23
2022-12-24T12:29:52.992Z,12.73
2022-12-24T12:32:56.110Z,16.73
2022-12-24T12:35:30.802Z,10.05
2022-12-24T12:38:02.446Z,16.85
2022-12-24T12:41:02.735Z,9.30
2022-12-24T12:43:41.678Z,14.45
2022-12-24T12:46:31.669Z,14.10
2022-12-24T12:49:25.179Z,15.02
2022-12-24T12:54:36.672Z,12.32
2022-12-24T12:57:09.229Z,12.05
2022-12-24T12:59:39.888Z,11.23
2022-12-24T13:02:15.668Z,11.70
2022-12-24T13:05:00.877Z,11.25
2022-12-24T13:07:59.977Z,21.13
2022-12-24T13:10:55.422Z,16.58
2022-12-24T13:13:49.697Z,10.32
2022-12-24T13:16:51.512Z,12.20
2022-12-24T13:19:40.966Z,12.18
2022-12-24T13:22:18.506Z,11.43
2022-12-24T13:24:52.105Z,12.57
2022-12-24T13:27:25.451Z,14.18
2022-12-24T13:30:09.169Z,14.20
2022-12-24T13:32:49.079Z,12.35
2022-12-24T13:35:20.019Z,10.43
2022-12-24T13:37:49.043Z,15.07
2022-12-24T13:40:27.733Z,12.35
2022-12-24T13:43:01.530Z,10.05
2022-12-24T13:45:38.455Z,13.52
2022-12-24T13:48:11.341Z,17.38
2022-12-24T13:50:39.005Z,15.52
2022-12-24T13:53:06.985Z,14.00
2022-12-24T13:55:33.652Z,12.27
2022-12-24T13:58:04.587Z,16.55
2022-12-24T14:00:42.290Z,14.77
2022-12-24T14:03:15.289Z,14.32
2022-12-24T14:08:23.243Z,14.55
2022-12-24T14:11:13.305Z,13.13
2022-12-24T14:13:40.023Z,15.30
2022-12-24T14:16:12.976Z,14.18
2022-12-24T14:21:12.970Z,16.95
2022-12-24T14:23:44.471Z,17.10
2022-12-24T14:26:19.674Z,13.65
2022-12-24T14:28:58.248Z,18.00
2022-12-24T14:31:25.096Z,16.20
2022-12-24T14:33:52.971Z,11.20
2022-12-24T14:36:22.510Z,21.67
2022-12-24T14:38:49.909Z,13.25
2022-12-24T14:41:26.757Z,16.38
2022-12-24T14:44:24.334Z,14.43
2022-12-24T14:46:58.934Z,13.70
2022-12-24T14:50:07.065Z,11.30
2022-12-24T14:53:04.756Z,12.45
2022-12-24T14:55:37.141Z,10.10
2022-12-24T14:58:26.109Z,15.32
2022-12-24T15:00:55.323Z,10.02
2022-12-24T15:03:24.826Z,8.07
2022-12-24T15:06:02.056Z,10.85
2022-12-24T15:08:33.239Z,17.83
2022-12-24T15:11:02.297Z,16.30
2022-12-24T15:13:36.695Z,17.83
2022-12-24T15:16:11.558Z,16.08
2022-12-24T15:18:49.806Z,11.70
2022-12-24T15:21:44.335Z,17.45
2022-12-24T15:24:32.535Z,18.42
2022-12-24T15:27:02.913Z,23.73
2022-12-24T15:29:32.349Z,16.20
2022-12-24T15:32:01.386Z,17.77
2022-12-24T15:34:30.736Z,13.75
2022-12-24T15:37:05.783Z,12.93
2022-12-24T15:39:32.605Z,12.85
2022-12-24T15:42:14.378Z,19.00
2022-12-24T15:44:43.313Z,14.00
2022-12-24T15:47:27.032Z,14.88
2022-12-24T15:49:53.761Z,14.88
2022-12-24T15:52:24.497Z,20.48
2022-12-24T15:54:57.385Z,15.35
2022-12-24T15:57:33.381Z,15.13
2022-12-24T16:00:01.931Z,19.00
2022-12-24T16:02:38.651Z,15.43
2022-12-24T16:05:34.699Z,17.45
2022-12-24T16:08:14.776Z,17.00
2022-12-24T16:10:42.464Z,17.65
2022-12-24T16:13:17.115Z,16.95
2022-12-24T16:15:46.639Z,14.70
2022-12-24T16:18:20.949Z,16.75
2022-12-24T16:20:51.138Z,18.25
2022-12-24T16:23:23.241Z,12.82
2022-12-24T16:25:50.194Z,17.50
2022-12-24T16:28:22.187Z,13.82
2022-12-24T16:30:49.970Z,19.02
2022-12-24T16:33:19.038Z,14.85
2022-12-24T16:35:46.165Z,16.77
2022-12-24T16:38:13.771Z,16.20
2022-12-24T16:40:41.671Z,15.60
2022-12-24T16:43:27.932Z,11.07
2022-12-24T16:45:57.588Z,12.32
2022-12-24T16:48:25.341Z,13.32
2022-12-24T16:50:52.706Z,15.00
2022-12-24T16:53:20.782Z,16.95
2022-12-24T16:55:47.978Z,13.52
2022-12-24T16:58:15.747Z,15.43
2022-12-24T17:00:43.182Z,19.05
2022-12-24T17:03:09.963Z,16.55
2022-12-24T17:05:41.474Z,17.70
2022-12-24T17:08:08.527Z,14.88
2022-12-24T17:10:35.491Z,20.95
2022-12-24T17:13:02.290Z,21.35
2022-12-24T17:15:29.220Z,16.65
2022-12-24T17:17:56.048Z,14.23
2022-12-24T17:20:24.581Z,15.90
2022-12-24T17:22:52.436Z,13.20
2022-12-24T17:25:19.225Z,20.75
2022-12-24T17:27:45.969Z,20.10
2022-12-24T17:30:12.824Z,18.65
2022-12-24T17:32:39.864Z,21.48
2022-12-24T17:35:07.605Z,19.67
2022-12-24T17:37:34.409Z,19.58
2022-12-24T17:40:01.161Z,25.15
2022-12-24T17:42:27.918Z,27.85
2022-12-24T17:44:54.652Z,27.92
2022-12-24T17:47:21.419Z,27.60
2022-12-24T17:49:48.111Z,30.48
2022-12-24T17:52:14.935Z,21.60
2022-12-24T17:54:41.791Z,19.27
2022-12-24T17:57:08.509Z,18.77
2022-12-24T17:59:35.178Z,20.38
2022-12-24T18:02:02.064Z,17.35
2022-12-24T18:04:28.857Z,17.92
2022-12-24T18:07:02.084Z,25.05
2022-12-24T18:09:30.010Z,14.63
2022-12-24T18:11:56.752Z,20.00
2022-12-24T18:14:23.612Z,15.82
2022-12-24T18:16:50.630Z,19.08
2022-12-24T18:19:17.685Z,21.42
2022-12-24T18:21:44.521Z,22.52
2022-12-24T18:24:12.884Z,21.35
2022-12-24T18:26:39.662Z,23.08
2022-12-24T18:29:08.924Z,22.05
2022-12-24T18:31:36.192Z,21.27
2022-12-24T18:34:04.958Z,22.42
2022-12-24T18:36:31.677Z,19.38
2022-12-24T18:38:58.854Z,17.42
2022-12-24T18:41:27.932Z,17.70
2022-12-24T18:43:55.365Z,22.70
2022-12-24T18:46:24.271Z,22.73
2022-12-24T18:48:51.671Z,22.15
2022-12-24T18:51:19.911Z,14.95
2022-12-24T18:53:46.786Z,15.90
2022-12-24T18:56:18.832Z,13.88
2022-12-24T18:58:46.025Z,17.50
2022-12-24T19:01:21.674Z,11.05
2022-12-24T19:03:49.393Z,10.20
2022-12-24T19:06:16.775Z,10.32
2022-12-24T19:09:00.886Z,13.05
2022-12-24T19:11:30.355Z,11.45
2022-12-24T19:13:58.303Z,14.23
2022-12-24T19:16:25.459Z,11.38
2022-12-24T19:18:52.262Z,12.27
2022-12-24T19:21:19.062Z,9.07
2022-12-24T19:23:46.460Z,11.48
2022-12-24T19:26:14.410Z,9.60
2022-12-24T19:28:41.250Z,9.40
2022-12-24T19:31:16.242Z,8.93
2022-12-24T19:33:44.693Z,11.30
2022-12-24T19:36:13.878Z,7.95
2022-12-24T19:38:40.965Z,9.27
2022-12-24T19:41:09.630Z,7.07
2022-12-24T19:43:43.994Z,10.35
2022-12-24T19:46:12.576Z,9.68
2022-12-24T19:48:39.424Z,6.57
2022-12-24T19:51:08.633Z,6.05
2022-12-24T19:53:35.993Z,7.55
2022-12-24T19:56:03.231Z,5.22
2022-12-24T19:58:30.139Z,8.80
2022-12-24T20:01:07.185Z,10.30
2022-12-24T20:03:36.709Z,13.23
2022-12-24T20:06:03.513Z,8.63
2022-12-24T20:08:30.488Z,6.72
2022-12-24T20:10:57.536Z,7.43
2022-12-24T20:13:24.295Z,5.05
2022-12-24T20:15:51.010Z,6.68
2022-12-24T20:18:17.819Z,5.40
2022-12-24T20:20:44.477Z,7.03
2022-12-24T20:23:11.291Z,8.00
2022-12-24T20:25:38.486Z,12.38
2022-12-24T20:28:05.928Z,9.45
2022-12-24T20:30:34.239Z,9.35
2022-12-24T20:33:00.925Z,11.82
2022-12-24T20:35:27.812Z,9.20
2022-12-24T20:37:54.572Z,7.90
2022-12-24T20:40:21.272Z,8.70
2022-12-24T20:42:48.172Z,14.35
2022-12-24T20:45:15.232Z,19.70
2022-12-24T20:47:43.071Z,14.18
2022-12-24T20:50:10.076Z,12.43
2022-12-24T20:52:37.866Z,7.28
2022-12-24T20:55:05.611Z,8.75
2022-12-24T20:57:36.401Z,6.32
2022-12-24T21:00:04.261Z,7.22
2022-12-24T21:02:31.051Z,10.57
2022-12-24T21:05:02.174Z,9.13
2022-12-24T21:07:29.675Z,4.20
2022-12-24T21:09:57.779Z,5.03
2022-12-24T21:12:43.266Z,5.07
2022-12-24T21:15:09.997Z,5.88
2022-12-24T21:17:40.066Z,5.35
2022-12-24T21:20:08.131Z,5.18
2022-12-24T21:22:35.028Z,5.10
2022-12-24T21:25:01.873Z,2.80
2022-12-24T21:27:29.944Z,5.90
2022-12-24T21:29:56.680Z,5.03
2022-12-24T21:32:23.459Z,3.30
2022-12-24T21:34:50.152Z,4.22
2022-12-24T21:37:17.016Z,4.65
2022-12-24T21:39:43.866Z,5.20
2022-12-24T21:42:10.652Z,5.43
2022-12-24T21:44:38.094Z,7.43
2022-12-24T21:47:05.014Z,11.02
2022-12-24T21:49:50.221Z,4.20
2022-12-24T21:52:17.007Z,5.25
2022-12-24T21:54:43.855Z,5.80
2022-12-24T21:57:28.984Z,7.28
2022-12-24T21:59:57.417Z,3.78
2022-12-24T22:02:28.594Z,3.20
2022-12-24T22:04:55.659Z,6.15
2022-12-24T22:07:45.983Z,3.28
2022-12-24T22:10:32.196Z,6.32
2022-12-24T22:12:59.994Z,5.82
2022-12-24T22:15:27.496Z,8.30
2022-12-24T22:17:54.276Z,7.70
2022-12-24T22:20:27.001Z,5.25
2022-12-24T22:22:53.742Z,5.18
2022-12-24T22:25:20.453Z,4.22
2022-12-24T22:27:47.224Z,3.22
2022-12-24T22:30:14.022Z,3.53
2022-12-24T22:32:40.751Z,3.33
2022-12-24T22:35:07.649Z,5.57
2022-12-24T22:37:34.426Z,6.32
2022-12-24T22:40:01.294Z,4.35
2022-12-24T22:42:28.103Z,7.20
2022-12-24T22:44:54.746Z,5.15
2022-12-24T22:47:21.409Z,4.50
2022-12-24T22:49:49.085Z,7.60
2022-12-24T22:52:17.285Z,2.97
2022-12-24T22:54:43.962Z,6.13
2022-12-24T22:57:11.083Z,4.53
2022-12-24T22:59:38.559Z,6.05
2022-12-24T23:02:06.954Z,4.28
2022-12-24T23:04:37.761Z,6.38
2022-12-24T23:07:06.604Z,4.53
2022-12-24T23:09:33.442Z,8.77
2022-12-24T23:12:00.136Z,9.60
2022-12-24T23:14:45.403Z,7.22
2022-12-24T23:17:12.122Z,6.05
2022-12-24T23:19:38.789Z,6.10
2022-12-24T23:22:05.936Z,5.32
2022-12-24T23:24:33.850Z,4.22
2022-12-24T23:27:03.835Z,5.53
2022-12-24T23:29:31.775Z,5.20
2022-12-24T23:31:58.962Z,3.95
2022-12-24T23:34:25.878Z,3.83
2022-12-24T23:36:52.832Z,6.20
2022-12-24T23:39:19.498Z,6.43
2022-12-24T23:41:46.123Z,5.63
2022-12-24T23:44:12.827Z,6.95
2022-12-24T23:46:39.502Z,6.55
2022-12-24T23:49:06.300Z,6.22
2022-12-24T23:51:33.081Z,7.30
2022-12-24T23:53:59.869Z,7.50
2022-12-24T23:56:26.578Z,7.97
2022-12-24T23:58:53.342Z,5.82
